Time;durP1;ratioP1;P1;durP2;ratioP2;P2;SDS_P1;SDS_P2;PMS_P1;PMS_P2;Temp;Humidity;BMP_temperature;BMP_pressure;BME280_temperature;BME280_humidity;BME280_pressure;Samples;Min_cycle;Max_cycle;Signal;HPM_P1;HPM_P2
2023/09/17 00:00:47;;;;;;;10.10;8.15;;;18.30;99.90;;;;;;5010070;28;20022;-75
2023/09/17 00:03:14;;;;;;;9.77;8.73;;;18.30;99.90;;;;;;4997585;28;20380;-75
2023/09/17 00:05:40;;;;;;;7.05;6.35;;;18.30;99.90;;;;;;4995167;28;20033;-75
2023/09/17 00:08:06;;;;;;;9.30;8.35;;;18.30;99.90;;;;;;5015220;28;20041;-75
2023/09/17 00:10:33;;;;;;;6.97;6.22;;;18.30;99.90;;;;;;5012484;28;20400;-75
2023/09/17 00:13:00;;;;;;;8.93;8.07;;;18.30;99.90;;;;;;5014796;28;20048;-76
2023/09/17 00:15:26;;;;;;;7.30;6.05;;;18.30;99.90;;;;;;5013145;28;20041;-76
2023/09/17 00:17:53;;;;;;;8.80;7.80;;;18.30;99.90;;;;;;4997556;28;20491;-77
2023/09/17 00:20:20;;;;;;;9.93;8.70;;;18.30;99.90;;;;;;5014839;28;20041;-77
2023/09/17 00:22:46;;;;;;;6.53;5.28;;;18.30;99.90;;;;;;4998538;28;20052;-75
2023/09/17 00:25:13;;;;;;;6.57;5.88;;;18.30;99.90;;;;;;4997070;28;20139;-76
2023/09/17 00:27:39;;;;;;;7.43;6.43;;;18.30;99.90;;;;;;5030409;28;20045;-76
2023/09/17 00:30:09;;;;;;;7.32;6.55;;;18.30;99.90;;;;;;4998856;28;20045;-75
2023/09/17 00:32:35;;;;;;;6.93;5.72;;;18.30;99.90;;;;;;5015278;28;20033;-76
2023/09/17 00:35:01;;;;;;;5.38;4.88;;;18.30;99.90;;;;;;5015409;28;20037;-77
2023/09/17 00:37:28;;;;;;;8.32;7.50;;;18.30;99.90;;;;;;4998394;28;20041;-77
2023/09/17 00:39:55;;;;;;;7.13;5.82;;;18.30;99.90;;;;;;5014931;28;20037;-76
2023/09/17 00:42:21;;;;;;;6.68;5.07;;;18.30;99.90;;;;;;4997561;28;20046;-76
2023/09/17 00:44:47;;;;;;;7.47;6.78;;;18.30;99.90;;;;;;4994850;28;20042;-77
2023/09/17 00:47:14;;;;;;;5.93;5.32;;;18.30;99.90;;;;;;4991821;28;20053;-77
2023/09/17 00:49:41;;;;;;;4.35;3.95;;;18.30;99.90;;;;;;4986278;28;20471;-77
2023/09/17 00:52:15;;;;;;;4.47;4.07;;;18.30;99.90;;;;;;4997684;28;20806;-77
2023/09/17 00:54:44;;;;;;;5.75;4.82;;;18.30;99.90;;;;;;4988079;28;20041;-76
2023/09/17 00:57:11;;;;;;;4.10;3.67;;;18.30;99.90;;;;;;4991921;28;20045;-76
2023/09/17 00:59:39;;;;;;;4.70;4.30;;;18.30;99.90;;;;;;4996079;28;20045;-77
2023/09/17 01:02:05;;;;;;;5.30;4.72;;;18.30;99.90;;;;;;4996820;28;20041;-77
2023/09/17 01:04:32;;;;;;;5.78;4.78;;;18.20;99.90;;;;;;5012672;28;20037;-77
2023/09/17 01:07:00;;;;;;;6.22;5.65;;;18.20;99.90;;;;;;4997209;28;20029;-76
2023/09/17 01:09:27;;;;;;;7.30;6.47;;;18.10;99.90;;;;;;5012175;28;20033;-76
2023/09/17 01:11:53;;;;;;;6.20;5.60;;;18.10;99.90;;;;;;5013453;28;20400;-77
2023/09/17 01:14:20;;;;;;;9.35;7.65;;;18.00;99.90;;;;;;5013512;28;20029;-77
2023/09/17 01:16:47;;;;;;;11.10;8.93;;;18.00;99.90;;;;;;4998211;28;20053;-77
2023/09/17 01:19:22;;;;;;;10.27;9.30;;;18.00;99.90;;;;;;5013942;28;20044;-77
2023/09/17 01:22:01;;;;;;;9.65;7.95;;;18.00;99.90;;;;;;5017085;28;20037;-77
2023/09/17 01:24:40;;;;;;;11.18;9.82;;;17.90;99.90;;;;;;5012195;28;20040;-77
2023/09/17 01:27:09;;;;;;;7.93;7.13;;;17.90;99.90;;;;;;5013112;28;20060;-76
2023/09/17 01:29:37;;;;;;;11.25;9.95;;;17.90;99.90;;;;;;5009890;28;20484;-76
2023/09/17 01:32:05;;;;;;;11.68;10.48;;;17.80;99.90;;;;;;5015082;28;20034;-77
2023/09/17 01:34:37;;;;;;;11.85;10.02;;;17.70;99.90;;;;;;4995738;28;20037;-77
2023/09/17 01:37:34;;;;;;;11.95;10.55;;;17.60;99.90;;;;;;4963890;28;20064;-77
2023/09/17 01:40:12;;;;;;;13.57;12.18;;;17.40;99.90;;;;;;4979333;28;20437;-74
2023/09/17 01:42:40;;;;;;;13.05;11.85;;;17.30;99.90;;;;;;4997070;28;20029;-75
2023/09/17 01:45:09;;;;;;;8.40;7.60;;;17.10;99.90;;;;;;4998076;28;20044;-76
2023/09/17 01:47:36;;;;;;;11.80;10.45;;;16.90;99.90;;;;;;5011343;28;20484;-76
2023/09/17 01:50:04;;;;;;;16.10;13.48;;;16.80;99.90;;;;;;4996279;28;20040;-74
2023/09/17 01:52:35;;;;;;;16.83;15.23;;;16.60;99.90;;;;;;5012847;28;20033;-74
2023/09/17 01:55:02;;;;;;;10.18;9.25;;;16.50;99.90;;;;;;5012080;28;20042;-75
2023/09/17 01:57:29;;;;;;;12.05;10.82;;;16.40;99.90;;;;;;5014788;28;20042;-74
2023/09/17 01:59:56;;;;;;;13.68;12.38;;;16.20;99.90;;;;;;5012559;28;20033;-75
2023/09/17 02:02:23;;;;;;;14.25;12.95;;;16.10;99.90;;;;;;5013544;28;20994;-74
2023/09/17 02:04:49;;;;;;;11.52;10.35;;;16.00;99.90;;;;;;4997291;28;20387;-74
2023/09/17 02:07:16;;;;;;;14.05;12.75;;;15.90;99.90;;;;;;5011258;28;20033;-75
2023/09/17 02:09:44;;;;;;;10.50;9.40;;;15.90;99.90;;;;;;4980155;28;20080;-74
2023/09/17 02:12:11;;;;;;;12.73;11.50;;;15.80;99.90;;;;;;5013558;28;20048;-75
2023/09/17 02:14:38;;;;;;;13.50;12.23;;;15.70;99.90;;;;;;5012722;28;20361;-75
2023/09/17 02:17:04;;;;;;;14.40;12.90;;;15.70;99.90;;;;;;5013265;28;20048;-75
2023/09/17 02:19:30;;;;;;;13.27;11.98;;;15.70;99.90;;;;;;5011482;28;20060;-76
2023/09/17 02:21:57;;;;;;;12.80;11.52;;;15.80;99.90;;;;;;5014425;28;20037;-76
2023/09/17 02:24:24;;;;;;;10.57;9.48;;;15.70;99.90;;;;;;4995470;28;20029;-74
2023/09/17 02:26:50;;;;;;;10.10;9.15;;;15.70;99.90;;;;;;5012428;28;20037;-75
2023/09/17 02:29:19;;;;;;;14.23;12.73;;;15.80;99.90;;;;;;4993138;28;20048;-75
2023/09/17 02:31:46;;;;;;;14.18;12.85;;;15.80;99.90;;;;;;5012134;28;20492;-75
2023/09/17 02:34:12;;;;;;;11.32;10.15;;;15.80;99.90;;;;;;5012182;28;20033;-74
2023/09/17 02:36:39;;;;;;;12.50;11.20;;;15.90;99.90;;;;;;5010609;28;20037;-74
2023/09/17 02:39:08;;;;;;;16.42;14.75;;;15.90;99.90;;;;;;5011435;28;20033;-74
2023/09/17 02:41:34;;;;;;;13.48;12.18;;;15.90;99.90;;;;;;4994274;28;20033;-74
2023/09/17 02:44:02;;;;;;;15.98;13.70;;;15.90;99.90;;;;;;5001283;28;20041;-73
2023/09/17 02:46:29;;;;;;;12.20;10.93;;;15.90;99.90;;;;;;4994225;28;20029;-74
2023/09/17 02:48:55;;;;;;;11.45;10.27;;;15.90;99.90;;;;;;5008207;28;20553;-74
2023/09/17 02:51:22;;;;;;;14.73;13.30;;;15.90;99.90;;;;;;4993555;28;20477;-74
2023/09/17 02:53:49;;;;;;;10.63;9.55;;;15.90;99.90;;;;;;4995824;28;20041;-74
2023/09/17 02:56:16;;;;;;;14.23;12.50;;;15.90;99.90;;;;;;4995953;28;20037;-74
2023/09/17 02:58:43;;;;;;;13.57;10.75;;;15.90;99.90;;;;;;5010526;28;20042;-75
2023/09/17 03:01:15;;;;;;;12.07;10.90;;;15.90;99.90;;;;;;4995029;28;20053;-74
2023/09/17 03:03:41;;;;;;;;;;;15.90;99.90;;;;;;5011349;28;20037;-74
2023/09/17 03:06:10;;;;;;;14.70;13.20;;;15.90;99.90;;;;;;4975787;28;19920;-74
2023/09/17 03:08:41;;;;;;;9.85;8.95;;;15.90;99.90;;;;;;4991985;28;20041;-74
2023/09/17 03:11:13;;;;;;;12.32;11.15;;;15.90;99.90;;;;;;5004134;28;20033;-74
2023/09/17 03:13:44;;;;;;;13.52;12.25;;;15.80;99.90;;;;;;4981120;28;20048;-75
2023/09/17 03:16:16;;;;;;;10.85;9.27;;;15.80;99.90;;;;;;4984900;28;20508;-73
2023/09/17 03:18:43;;;;;;;13.32;9.60;;;15.70;99.90;;;;;;4996236;28;20045;-75
2023/09/17 03:21:10;;;;;;;9.77;8.23;;;15.70;99.90;;;;;;4974784;28;1124720;-76
2023/09/17 03:23:37;;;;;;;13.27;11.15;;;15.70;99.90;;;;;;4998065;28;20033;-74
2023/09/17 03:26:05;;;;;;;11.90;10.65;;;15.60;99.90;;;;;;4998526;28;20155;-74
2023/09/17 03:28:32;;;;;;;11.05;8.98;;;15.60;99.90;;;;;;4982154;28;20033;-74
2023/09/17 03:30:59;;;;;;;14.02;12.73;;;15.50;99.90;;;;;;5002709;28;20522;-73
2023/09/17 03:33:27;;;;;;;11.38;10.27;;;15.50;99.90;;;;;;5014867;28;20170;-73
2023/09/17 03:35:54;;;;;;;10.73;9.65;;;15.50;99.90;;;;;;5013118;28;20491;-73
2023/09/17 03:38:22;;;;;;;11.95;10.52;;;15.40;99.90;;;;;;4998794;28;20100;-74
2023/09/17 03:40:49;;;;;;;9.80;9.00;;;15.40;99.90;;;;;;4996667;28;20038;-75
2023/09/17 03:43:15;;;;;;;13.93;12.50;;;15.40;99.90;;;;;;4999604;28;20037;-74
2023/09/17 03:45:42;;;;;;;8.68;7.70;;;15.40;99.90;;;;;;5013744;28;20476;-74
2023/09/17 03:48:08;;;;;;;7.82;7.03;;;15.40;99.90;;;;;;4996952;28;20041;-74
2023/09/17 03:50:39;;;;;;;11.63;10.60;;;15.40;99.90;;;;;;5014972;28;20038;-73
2023/09/17 03:53:06;;;;;;;14.05;12.73;;;15.40;99.90;;;;;;4988972;28;20607;-73
2023/09/17 03:55:34;;;;;;;10.90;9.80;;;15.40;99.90;;;;;;4999315;28;20037;-73
2023/09/17 03:58:03;;;;;;;9.82;8.57;;;15.40;99.90;;;;;;5014545;28;20042;-74
2023/09/17 04:00:35;;;;;;;11.40;10.32;;;15.40;99.90;;;;;;4997589;28;20037;-74
2023/09/17 04:03:01;;;;;;;13.68;12.02;;;15.50;99.90;;;;;;4999086;28;20041;-73
2023/09/17 04:05:28;;;;;;;13.98;12.50;;;15.50;99.90;;;;;;5015374;28;20036;-73
2023/09/17 04:07:55;;;;;;;11.90;10.25;;;15.50;99.90;;;;;;5014323;28;20096;-74
2023/09/17 04:10:21;;;;;;;9.55;8.55;;;15.50;99.90;;;;;;5010488;28;20492;-73
2023/09/17 04:12:49;;;;;;;10.60;9.57;;;15.50;99.90;;;;;;4982586;28;20556;-73
2023/09/17 04:15:18;;;;;;;16.83;14.85;;;15.60;99.90;;;;;;5014969;28;20037;-72
2023/09/17 04:17:47;;;;;;;12.23;10.98;;;15.50;99.90;;;;;;5014074;28;20038;-73
2023/09/17 04:20:18;;;;;;;11.00;9.90;;;15.50;99.90;;;;;;5013498;28;20029;-74
2023/09/17 04:22:47;;;;;;;15.88;14.25;;;15.60;99.90;;;;;;5014541;28;20041;-75
2023/09/17 04:25:13;;;;;;;20.15;16.58;;;15.50;99.90;;;;;;5012660;28;20045;-73
2023/09/17 04:27:41;;;;;;;11.52;10.43;;;15.60;99.90;;;;;;5013931;28;20040;-75
2023/09/17 04:30:13;;;;;;;9.70;8.77;;;15.60;99.90;;;;;;4998686;28;20041;-74
2023/09/17 04:32:42;;;;;;;13.05;11.43;;;15.60;99.90;;;;;;5014260;28;20053;-73
2023/09/17 04:35:15;;;;;;;13.25;11.95;;;15.60;99.90;;;;;;5012700;28;20041;-74
2023/09/17 04:37:44;;;;;;;13.48;12.18;;;15.60;99.90;;;;;;5014869;28;20476;-74
2023/09/17 04:40:11;;;;;;;12.98;11.77;;;15.60;99.90;;;;;;5012885;28;20040;-73
2023/09/17 04:42:45;;;;;;;10.85;9.80;;;15.60;99.90;;;;;;5012113;28;20037;-74
2023/09/17 04:45:34;;;;;;;14.18;12.05;;;15.60;99.90;;;;;;4993120;28;20384;-74
2023/09/17 04:48:03;;;;;;;17.73;15.35;;;15.70;99.90;;;;;;4996343;28;20515;-76
2023/09/17 04:50:30;;;;;;;16.25;14.63;;;15.60;99.90;;;;;;4997227;28;20041;-73
2023/09/17 04:52:57;;;;;;;14.95;13.45;;;15.60;99.90;;;;;;4995905;28;20380;-73
2023/09/17 04:55:24;;;;;;;14.55;13.20;;;15.70;99.90;;;;;;5013333;28;20025;-75
2023/09/17 04:57:52;;;;;;;18.90;17.00;;;15.70;99.90;;;;;;4980343;28;20045;-74
2023/09/17 05:00:20;;;;;;;16.83;15.13;;;15.70;99.90;;;;;;5013025;28;20413;-73
2023/09/17 05:02:48;;;;;;;19.00;17.05;;;15.70;99.90;;;;;;4997621;28;20029;-74
2023/09/17 05:05:18;;;;;;;20.77;18.67;;;15.70;99.90;;;;;;4997070;28;20041;-74
2023/09/17 05:07:47;;;;;;;25.63;22.88;;;15.70;99.90;;;;;;4981565;28;20037;-73
2023/09/17 05:10:15;;;;;;;23.27;20.45;;;15.70;99.90;;;;;;5013754;28;20044;-73
2023/09/17 05:12:43;;;;;;;20.40;18.50;;;15.70;99.90;;;;;;5014200;28;20033;-73
2023/09/17 05:15:10;;;;;;;18.38;16.67;;;15.60;99.90;;;;;;5012259;28;20041;-74
2023/09/17 05:17:37;;;;;;;21.50;18.85;;;15.70;99.90;;;;;;5014542;28;20053;-74
2023/09/17 05:20:06;;;;;;;21.27;19.02;;;15.70;99.90;;;;;;5012848;28;20037;-73
2023/09/17 05:22:34;;;;;;;20.65;18.48;;;15.70;99.90;;;;;;4996138;28;20041;-73
2023/09/17 05:25:04;;;;;;;17.63;15.93;;;15.60;99.90;;;;;;4981022;28;20045;-73
2023/09/17 05:27:30;;;;;;;21.58;19.45;;;15.70;99.90;;;;;;4996060;28;20041;-73
2023/09/17 05:29:59;;;;;;;26.05;23.33;;;15.70;99.90;;;;;;5011504;28;20400;-73
2023/09/17 05:32:27;;;;;;;22.85;20.55;;;15.70;99.90;;;;;;4994683;28;20054;-73
2023/09/17 05:34:56;;;;;;;21.45;19.25;;;15.70;99.90;;;;;;4981677;28;20395;-75
2023/09/17 05:37:23;;;;;;;23.67;20.95;;;15.70;99.90;;;;;;5013587;28;20033;-74
2023/09/17 05:39:50;;;;;;;24.15;21.65;;;15.70;99.90;;;;;;5005336;28;20033;-74
2023/09/17 05:42:16;;;;;;;21.75;19.45;;;15.80;99.90;;;;;;5008553;28;20476;-73
2023/09/17 05:44:43;;;;;;;22.80;20.00;;;15.80;99.90;;;;;;4997170;28;21335;-75
2023/09/17 05:47:09;;;;;;;22.08;19.85;;;15.80;99.90;;;;;;4993188;28;20041;-74
2023/09/17 05:49:36;;;;;;;20.67;18.55;;;15.80;99.90;;;;;;4995797;28;20038;-73
2023/09/17 05:52:02;;;;;;;27.13;24.27;;;15.90;99.90;;;;;;5014503;28;20033;-75
2023/09/17 05:54:29;;;;;;;26.63;22.70;;;15.90;99.90;;;;;;5004254;28;20033;-74
2023/09/17 05:56:55;;;;;;;32.67;29.13;;;15.90;99.90;;;;;;5014832;28;20519;-74
2023/09/17 05:59:22;;;;;;;28.25;23.17;;;15.90;99.90;;;;;;4996495;28;20037;-74
2023/09/17 06:01:50;;;;;;;22.45;20.05;;;15.90;99.90;;;;;;4979369;28;20031;-73
2023/09/17 06:04:17;;;;;;;25.63;22.90;;;15.90;99.90;;;;;;4995415;28;20033;-73
2023/09/17 06:06:43;;;;;;;24.80;21.58;;;15.90;99.90;;;;;;5013731;28;20033;-74
2023/09/17 06:09:10;;;;;;;23.65;21.15;;;15.90;99.90;;;;;;5012740;28;20029;-75
2023/09/17 06:11:36;;;;;;;24.30;21.60;;;15.90;99.90;;;;;;5012366;28;20033;-73
2023/09/17 06:14:03;;;;;;;23.58;20.08;;;15.90;99.90;;;;;;4996258;28;20041;-75
2023/09/17 06:16:29;;;;;;;24.67;21.92;;;15.90;99.90;;;;;;5013005;28;20037;-74
2023/09/17 06:18:56;;;;;;;23.08;19.38;;;15.90;99.90;;;;;;4978339;28;20038;-73
2023/09/17 06:21:22;;;;;;;20.40;18.08;;;15.90;99.90;;;;;;5013241;28;20044;-73
2023/09/17 06:23:49;;;;;;;24.30;21.13;;;15.90;99.90;;;;;;5013087;28;21407;-73
2023/09/17 06:26:16;;;;;;;22.25;17.70;;;15.90;99.90;;;;;;5017201;28;20464;-73
2023/09/17 06:28:42;;;;;;;20.98;18.15;;;15.90;99.90;;;;;;4980336;28;20045;-74
2023/09/17 06:31:09;;;;;;;19.17;16.85;;;15.80;99.90;;;;;;5011955;28;20077;-75
2023/09/17 06:33:35;;;;;;;21.70;19.45;;;15.90;99.90;;;;;;5012589;28;20029;-74
2023/09/17 06:36:03;;;;;;;16.75;15.07;;;15.80;99.90;;;;;;5013562;28;20033;-73
2023/09/17 06:38:30;;;;;;;21.73;18.85;;;15.80;99.90;;;;;;5013374;28;20490;-74
2023/09/17 06:40:57;;;;;;;19.88;17.73;;;15.90;99.90;;;;;;5004698;28;20037;-73
2023/09/17 06:43:23;;;;;;;22.33;19.33;;;15.80;99.90;;;;;;4994505;28;20049;-72
2023/09/17 06:45:50;;;;;;;20.90;18.70;;;15.80;99.90;;;;;;4996679;28;20052;-73
2023/09/17 06:48:16;;;;;;;19.70;16.85;;;15.80;99.90;;;;;;5013034;28;20037;-75
2023/09/17 06:50:43;;;;;;;21.40;17.67;;;15.80;99.90;;;;;;5014891;28;20037;-73
2023/09/17 06:53:09;;;;;;;17.73;15.50;;;15.80;99.90;;;;;;5010767;28;20040;-74
2023/09/17 06:55:36;;;;;;;15.95;14.27;;;15.80;99.90;;;;;;4990750;28;20029;-75
2023/09/17 06:58:02;;;;;;;17.13;14.32;;;15.80;99.90;;;;;;5000746;28;20045;-74
2023/09/17 07:00:29;;;;;;;15.68;13.77;;;15.80;99.90;;;;;;5015019;28;20025;-74
2023/09/17 07:02:55;;;;;;;15.88;14.35;;;15.80;99.90;;;;;;5014974;28;20594;-74
2023/09/17 07:05:22;;;;;;;16.70;14.95;;;15.80;99.90;;;;;;5015835;28;20037;-75
2023/09/17 07:07:48;;;;;;;16.80;15.05;;;15.90;99.90;;;;;;5015446;28;20044;-75
2023/09/17 07:10:14;;;;;;;14.75;12.05;;;15.90;99.90;;;;;;5013591;28;20480;-75
2023/09/17 07:12:42;;;;;;;16.13;12.75;;;15.90;99.90;;;;;;5014916;28;20033;-74
2023/09/17 07:15:10;;;;;;;14.32;12.88;;;16.00;99.90;;;;;;4998819;28;20029;-75
2023/09/17 07:17:38;;;;;;;15.45;13.65;;;16.00;99.90;;;;;;5015336;28;20044;-75
2023/09/17 07:20:06;;;;;;;14.38;12.85;;;16.00;99.90;;;;;;5014026;28;20033;-75
2023/09/17 07:22:33;;;;;;;16.50;14.60;;;16.00;99.90;;;;;;5013581;28;20061;-75
2023/09/17 07:24:59;;;;;;;15.93;14.27;;;16.10;99.90;;;;;;4996665;28;20025;-75
2023/09/17 07:27:29;;;;;;;11.95;10.75;;;16.10;99.90;;;;;;4978733;28;20045;-75
2023/09/17 07:29:56;;;;;;;16.83;15.02;;;16.10;99.90;;;;;;4956263;28;20038;-75
2023/09/17 07:32:27;;;;;;;14.23;12.80;;;16.20;99.90;;;;;;5007466;28;20041;-75
2023/09/17 07:34:54;;;;;;;17.10;15.07;;;16.20;99.90;;;;;;5014130;28;20053;-75
2023/09/17 07:37:21;;;;;;;16.35;14.85;;;16.20;99.90;;;;;;5016436;28;20045;-74
2023/09/17 07:39:55;;;;;;;15.10;13.57;;;16.30;99.90;;;;;;5016294;28;20147;-73
2023/09/17 07:42:22;;;;;;;16.98;15.27;;;16.30;99.90;;;;;;4999722;28;20340;-74
2023/09/17 07:44:49;;;;;;;13.45;12.05;;;16.20;99.90;;;;;;5012118;28;20385;-74
2023/09/17 07:47:17;;;;;;;15.40;13.80;;;16.30;99.90;;;;;;5014236;28;20044;-73
2023/09/17 07:49:43;;;;;;;12.75;11.48;;;16.20;99.90;;;;;;5014099;28;20033;-74
2023/09/17 07:52:10;;;;;;;13.50;12.10;;;16.20;99.90;;;;;;5014379;28;20040;-74
2023/09/17 07:54:39;;;;;;;12.30;11.10;;;16.20;99.90;;;;;;5012452;28;20030;-74
2023/09/17 07:57:07;;;;;;;15.98;14.18;;;16.20;99.90;;;;;;5032479;28;20052;-73
2023/09/17 07:59:33;;;;;;;15.20;12.77;;;16.30;99.90;;;;;;5012582;28;20451;-73
2023/09/17 08:02:00;;;;;;;17.17;15.43;;;16.30;99.90;;;;;;5012276;28;20404;-75
2023/09/17 08:04:26;;;;;;;20.35;18.13;;;16.40;99.90;;;;;;5014411;28;20125;-73
2023/09/17 08:06:53;;;;;;;18.88;16.65;;;16.40;99.90;;;;;;4997749;28;20494;-79
2023/09/17 08:09:19;;;;;;;18.27;16.48;;;16.40;99.90;;;;;;4996531;28;20524;-74
2023/09/17 08:11:45;;;;;;;22.92;20.70;;;16.40;99.90;;;;;;4998097;28;20033;-74
2023/09/17 08:14:14;;;;;;;23.20;20.73;;;16.40;99.90;;;;;;4997864;28;20052;-74
2023/09/17 08:16:40;;;;;;;21.05;18.92;;;16.40;99.90;;;;;;5014329;28;20041;-75
2023/09/17 08:19:07;;;;;;;22.90;20.38;;;16.50;99.90;;;;;;5012923;28;20333;-75
2023/09/17 08:21:34;;;;;;;20.15;18.20;;;16.50;99.90;;;;;;5012279;28;20034;-74
2023/09/17 08:24:02;;;;;;;24.52;20.67;;;16.50;99.90;;;;;;5004510;28;20041;-75
2023/09/17 08:26:49;;;;;;;25.85;23.25;;;16.60;99.90;;;;;;5014976;28;20056;-74
2023/09/17 08:29:36;;;;;;;29.55;26.13;;;16.60;99.90;;;;;;5011895;28;20083;-74
2023/09/17 08:32:22;;;;;;;27.40;22.38;;;16.60;99.90;;;;;;4999580;28;20511;-74
2023/09/17 08:35:09;;;;;;;26.63;22.42;;;16.60;99.90;;;;;;5012495;28;20946;-72
2023/09/17 08:37:36;;;;;;;20.67;18.48;;;16.60;99.90;;;;;;4979549;28;20387;-75
2023/09/17 08:40:08;;;;;;;21.17;18.90;;;16.60;99.90;;;;;;4996623;28;20037;-73
2023/09/17 08:42:35;;;;;;;24.77;22.17;;;16.60;99.90;;;;;;4997310;28;20029;-73
2023/09/17 08:45:03;;;;;;;23.55;21.02;;;16.60;99.90;;;;;;4999073;28;20475;-74
2023/09/17 08:47:30;;;;;;;22.95;20.50;;;16.60;99.90;;;;;;5012933;28;20064;-75
2023/09/17 08:49:56;;;;;;;25.58;22.25;;;16.60;99.90;;;;;;4993549;28;20041;-74
2023/09/17 08:52:26;;;;;;;30.35;27.20;;;16.60;99.90;;;;;;5014720;28;20034;-76
2023/09/17 08:54:53;;;;;;;31.50;27.45;;;16.60;99.90;;;;;;4993807;28;20030;-73
2023/09/17 08:57:25;;;;;;;28.95;23.38;;;16.50;99.90;;;;;;5013689;28;20038;-73
2023/09/17 09:00:09;;;;;;;27.23;24.30;;;16.60;99.90;;;;;;4995787;28;20034;-73
2023/09/17 09:02:57;;;;;;;31.83;27.30;;;16.60;99.90;;;;;;4995201;28;20033;-75
2023/09/17 09:05:26;;;;;;;27.05;23.35;;;16.70;99.90;;;;;;5013785;28;20041;-74
2023/09/17 09:07:55;;;;;;;30.83;26.05;;;16.70;99.90;;;;;;5014289;28;20049;-74
2023/09/17 09:10:22;;;;;;;31.92;28.33;;;16.80;99.90;;;;;;5010511;28;20432;-73
2023/09/17 09:12:49;;;;;;;30.52;26.23;;;16.80;99.90;;;;;;5014482;28;20030;-76
2023/09/17 09:15:16;;;;;;;33.33;27.67;;;16.90;99.90;;;;;;4998359;28;20049;-74
2023/09/17 09:17:42;;;;;;;30.33;26.27;;;17.00;99.90;;;;;;4988667;28;20037;-72
2023/09/17 09:20:10;;;;;;;27.38;23.83;;;17.20;99.90;;;;;;5013436;28;20026;-74
2023/09/17 09:22:40;;;;;;;32.20;27.20;;;17.30;99.90;;;;;;5013419;28;20052;-73
2023/09/17 09:25:13;;;;;;;29.13;25.75;;;17.40;99.90;;;;;;5013268;28;20476;-74
2023/09/17 09:27:39;;;;;;;27.08;24.20;;;17.50;99.90;;;;;;4996843;28;20049;-73
2023/09/17 09:30:11;;;;;;;32.20;27.73;;;17.60;99.90;;;;;;5013602;28;20038;-73
2023/09/17 09:32:38;;;;;;;30.55;25.67;;;17.60;99.90;;;;;;5012889;28;20549;-74
2023/09/17 09:35:05;;;;;;;30.50;27.10;;;17.70;99.90;;;;;;5016310;28;20025;-75
2023/09/17 09:37:34;;;;;;;30.23;26.90;;;17.70;99.90;;;;;;4993985;28;20042;-74
2023/09/17 09:40:01;;;;;;;26.98;24.08;;;17.70;99.90;;;;;;4998061;28;20037;-73
2023/09/17 09:42:28;;;;;;;27.52;24.10;;;17.80;99.90;;;;;;5013076;28;20044;-74
2023/09/17 09:44:54;;;;;;;28.08;25.10;;;17.80;99.90;;;;;;5012020;28;20037;-75
2023/09/17 09:47:24;;;;;;;29.52;26.33;;;17.90;99.90;;;;;;5013508;28;20040;-74
2023/09/17 09:49:50;;;;;;;32.50;29.10;;;18.00;99.90;;;;;;4998738;28;20040;-74
2023/09/17 09:52:18;;;;;;;26.15;23.30;;;18.00;99.90;;;;;;4981005;28;20183;-73
2023/09/17 09:54:46;;;;;;;28.42;25.38;;;18.00;99.90;;;;;;4987725;28;20041;-74
2023/09/17 09:57:14;;;;;;;28.77;25.33;;;18.10;99.90;;;;;;4997317;28;20048;-75
2023/09/17 09:59:46;;;;;;;31.75;28.38;;;18.20;99.90;;;;;;5012805;28;20072;-74
2023/09/17 10:02:15;;;;;;;31.70;28.33;;;18.20;99.90;;;;;;4981795;28;20033;-73
2023/09/17 10:04:43;;;;;;;30.70;27.33;;;18.10;99.90;;;;;;5011403;28;20044;-74
2023/09/17 10:07:10;;;;;;;31.38;26.75;;;18.10;99.90;;;;;;4989115;28;20041;-76
2023/09/17 10:09:37;;;;;;;31.35;27.48;;;18.20;99.90;;;;;;5013111;28;20033;-75
2023/09/17 10:12:04;;;;;;;31.02;26.77;;;18.30;99.90;;;;;;5014930;28;20397;-74
2023/09/17 10:14:36;;;;;;;33.42;29.15;;;18.30;99.90;;;;;;4997897;28;21430;-74
2023/09/17 10:17:06;;;;;;;31.52;28.13;;;18.40;99.90;;;;;;4998430;28;20161;-74
2023/09/17 10:19:34;;;;;;;32.83;28.35;;;18.60;99.90;;;;;;4980258;28;20061;-75
2023/09/17 10:22:06;;;;;;;34.72;28.85;;;18.70;99.90;;;;;;5008836;28;20033;-76
2023/09/17 10:24:36;;;;;;;29.67;26.38;;;18.80;99.90;;;;;;4983888;28;20065;-74
2023/09/17 10:27:05;;;;;;;31.40;27.92;;;18.80;99.90;;;;;;4994559;28;20735;-75
2023/09/17 10:29:34;;;;;;;32.67;27.83;;;18.90;99.90;;;;;;4989214;28;20392;-74
2023/09/17 10:32:02;;;;;;;31.50;26.98;;;19.00;99.90;;;;;;5009347;28;20033;-75
2023/09/17 10:34:32;;;;;;;33.85;27.30;;;19.10;99.90;;;;;;5016134;28;20475;-74
2023/09/17 10:37:03;;;;;;;31.48;27.70;;;19.10;99.90;;;;;;5016834;28;20041;-73
2023/09/17 10:39:30;;;;;;;31.65;27.67;;;19.20;99.90;;;;;;5001123;28;20520;-75
2023/09/17 10:42:00;;;;;;;31.10;26.52;;;19.30;99.90;;;;;;5017227;28;20033;-73
2023/09/17 10:44:29;;;;;;;30.55;27.25;;;19.40;99.90;;;;;;5000173;28;20387;-73
2023/09/17 10:46:59;;;;;;;34.75;31.02;;;19.50;99.90;;;;;;5018197;28;20037;-74
2023/09/17 10:49:27;;;;;;;32.95;28.75;;;19.60;99.90;;;;;;5018298;28;20022;-76
2023/09/17 10:51:54;;;;;;;33.45;28.00;;;19.70;99.90;;;;;;5016332;28;20408;-74
2023/09/17 10:54:20;;;;;;;35.17;30.73;;;19.80;99.90;;;;;;5001791;28;20396;-75
2023/09/17 10:56:47;;;;;;;34.13;30.48;;;19.80;99.90;;;;;;5015099;28;20041;-74
2023/09/17 10:59:16;;;;;;;31.88;27.77;;;19.70;99.90;;;;;;5000546;28;20037;-76
2023/09/17 11:01:45;;;;;;;36.40;32.67;;;19.80;99.90;;;;;;4983687;28;20033;-75
2023/09/17 11:04:16;;;;;;;31.45;27.25;;;19.80;99.90;;;;;;5000896;28;20030;-74
2023/09/17 11:06:44;;;;;;;29.70;26.23;;;19.80;99.90;;;;;;5013862;28;20041;-77
2023/09/17 11:09:11;;;;;;;31.27;27.90;;;19.90;99.90;;;;;;5016119;28;20025;-74
2023/09/17 11:11:37;;;;;;;28.67;25.58;;;19.90;99.90;;;;;;5000084;28;20037;-81
2023/09/17 11:14:04;;;;;;;34.55;30.63;;;19.90;99.90;;;;;;5000758;28;20031;-77
2023/09/17 11:16:34;;;;;;;30.65;26.85;;;19.90;99.90;;;;;;5017265;28;20038;-76
2023/09/17 11:19:09;;;;;;;29.85;26.00;;;19.90;99.90;;;;;;5015927;28;20044;-74
2023/09/17 11:21:40;;;;;;;33.03;29.42;;;20.00;99.90;;;;;;4984903;28;20026;-75
2023/09/17 11:24:12;;;;;;;33.30;28.85;;;20.00;99.90;;;;;;5016886;28;20480;-74
2023/09/17 11:26:41;;;;;;;32.95;28.15;;;20.20;99.90;;;;;;5018720;28;20029;-74
2023/09/17 11:29:09;;;;;;;31.40;28.08;;;20.30;99.90;;;;;;4981980;28;20042;-73
2023/09/17 11:31:57;;;;;;;31.90;28.60;;;20.40;99.90;;;;;;5017227;28;20044;-74
2023/09/17 11:34:24;;;;;;;30.98;27.67;;;20.50;99.90;;;;;;4992281;28;20044;-74
2023/09/17 11:36:51;;;;;;;31.45;28.20;;;20.60;99.90;;;;;;5010572;28;20033;-73
2023/09/17 11:39:21;;;;;;;28.95;25.95;;;20.80;99.90;;;;;;5014573;28;20041;-75
2023/09/17 11:41:53;;;;;;;44.55;36.22;;;20.90;99.90;;;;;;4984501;28;20025;-74
2023/09/17 11:44:21;;;;;;;42.97;35.60;;;21.00;99.90;;;;;;4998506;28;20476;-74
2023/09/17 11:46:48;;;;;;;34.40;30.15;;;21.10;99.90;;;;;;5000244;28;20034;-74
2023/09/17 11:49:16;;;;;;;28.73;25.67;;;21.10;99.90;;;;;;5014777;28;20040;-74
2023/09/17 11:51:47;;;;;;;30.52;27.23;;;21.20;99.90;;;;;;4984401;28;20619;-74
2023/09/17 11:54:20;;;;;;;28.38;25.38;;;21.20;99.90;;;;;;5013245;28;20033;-74
2023/09/17 11:56:50;;;;;;;29.70;26.45;;;21.20;99.90;;;;;;5029195;28;20041;-74
2023/09/17 11:59:18;;;;;;;32.47;29.00;;;21.20;99.90;;;;;;4996916;28;20770;-74
2023/09/17 12:01:47;;;;;;;30.88;25.95;;;21.20;99.90;;;;;;4999030;28;20048;-73
2023/09/17 12:04:15;;;;;;;25.00;22.00;;;21.20;99.90;;;;;;4999800;28;20040;-74
2023/09/17 12:06:47;;;;;;;28.75;25.65;;;21.20;99.90;;;;;;5016102;28;21136;-74
2023/09/17 12:09:28;;;;;;;28.52;24.95;;;21.20;99.90;;;;;;5015761;28;20034;-74
2023/09/17 12:11:55;;;;;;;27.17;24.27;;;21.20;99.90;;;;;;5014582;28;20029;-74
2023/09/17 12:14:22;;;;;;;27.90;25.00;;;21.20;99.90;;;;;;5016472;28;20483;-74
2023/09/17 12:16:49;;;;;;;24.90;22.27;;;21.10;99.90;;;;;;5000060;28;20357;-74
2023/09/17 12:19:20;;;;;;;26.63;23.83;;;21.10;99.90;;;;;;5015301;28;20033;-74
2023/09/17 12:21:49;;;;;;;26.45;23.00;;;21.10;99.90;;;;;;4982034;28;20400;-74
2023/09/17 12:24:28;;;;;;;25.15;22.30;;;21.10;99.90;;;;;;4999282;28;20477;-74
2023/09/17 12:29:35;;;;;;;26.35;23.58;;;20.90;99.90;;;;;;5013772;28;20049;-74
2023/09/17 12:32:02;;;;;;;26.83;24.05;;;20.80;99.90;;;;;;5013646;28;20044;-74
2023/09/17 12:34:29;;;;;;;24.85;21.60;;;20.80;99.90;;;;;;5012863;28;20041;-73
2023/09/17 12:36:56;;;;;;;24.95;22.35;;;20.80;99.90;;;;;;5017088;28;20863;-74
2023/09/17 12:39:23;;;;;;;24.80;22.05;;;20.80;99.90;;;;;;5016983;28;20041;-75